Home > Products > Valid Products > MTR

000
SAUS45 KRIW 231858
MTRP60
METAR KP60 231856Z AUTO 24012G20KT 190V280 10/M04 A3019 RMK AO1
SLP201 T01001044





000
SAUS45 KRIW 231858
MTRP60
METAR KP60 231856Z AUTO 24012G20KT 190V280 10/M04 A3019 RMK AO1
SLP201 T01001044





000
SAUS45 KRIW 231757
MTRP60
METAR KP60 231756Z AUTO VRB06KT 09/M04 A3018 RMK AO1 SLP199
T00941044 10100 21022 58004





000
SAUS45 KRIW 231757
MTRP60
METAR KP60 231756Z AUTO VRB06KT 09/M04 A3018 RMK AO1 SLP199
T00941044 10100 21022 58004





000
SAUS45 KRIW 231657
MTRP60
METAR KP60 231656Z AUTO VRB05KT 07/M06 A3019 RMK AO1 SLP209
T00721056





000
SAUS45 KRIW 231657
MTRP60
METAR KP60 231656Z AUTO VRB05KT 07/M06 A3019 RMK AO1 SLP209
T00721056





000
SAUS45 KRIW 231557
MTRP60
METAR KP60 231556Z AUTO 00000KT 04/M02 A3019 RMK AO1 SLP219
T00441022





000
SAUS45 KRIW 231457
MTRP60
METAR KP60 231456Z AUTO 00000KT 00/M03 A3019 RMK AO1 SLP232
T00001028 55003





000
SAUS45 KRIW 231457
MTRP60
METAR KP60 231456Z AUTO 00000KT 00/M03 A3019 RMK AO1 SLP232
T00001028 55003





000
SAUS45 KRIW 231357
MTRP60
METAR KP60 231356Z AUTO 00000KT M02/M04 A3018 RMK AO1 SLP235
T10221039





000
SAUS45 KRIW 231257
MTRP60
METAR KP60 231256Z AUTO 00000KT M01/M03 A3019 RMK AO1 SLP228
T10111028





000
SAUS45 KRIW 231157
MTRP60
METAR KP60 231156Z AUTO 00000KT M01/M03 A3021 RMK AO1 SLP222
T10111028 11011 21039 56002





000
SAUS45 KRIW 231057
MTRP60
METAR KP60 231056Z AUTO VRB03KT M02/M03 A3021 RMK AO1 SLP222
T10171033





000
SAUS45 KRIW 230957
MTRP60
METAR KP60 230956Z AUTO 31003KT M02/M04 A3021 RMK AO1 SLP224
T10221039





000
SAUS45 KRIW 230957
MTRP60
METAR KP60 230956Z AUTO 31003KT M02/M04 A3021 RMK AO1 SLP224
T10221039





000
SAUS45 KRIW 230857
MTRP60
METAR KP60 230856Z AUTO 31003KT M03/M05 A3021 RMK AO1 SLP225
T10331050 56004





000
SAUS45 KRIW 230757
MTRP60
METAR KP60 230756Z AUTO 30003KT M03/M05 A3022 RMK AO1 SLP231
T10331050





000
SAUS45 KRIW 230657
MTRP60
METAR KP60 230656Z AUTO 31003KT M04/M05 A3022 RMK AO1 SLP234
T10391050 400561044





000
SAUS45 KRIW 230557
MTRP60
METAR KP60 230556Z AUTO 00000KT M03/M05 A3023 RMK AO1 SLP240
T10331050 10028 21039 58006





000
SAUS45 KRIW 230457
MTRP60
METAR KP60 230456Z AUTO 30003KT M03/M06 A3024 RMK AO1 SLP245
T10331056





000
SAUS45 KRIW 230457
MTRP60
METAR KP60 230456Z AUTO 30003KT M03/M06 A3024 RMK AO1 SLP245
T10331056





000
SAUS45 KRIW 230357
MTRP60
METAR KP60 230356Z AUTO 00000KT M03/M05 A3024 RMK AO1 SLP253
T10331050





000
SAUS45 KRIW 230357
MTRP60
METAR KP60 230356Z AUTO 00000KT M03/M05 A3024 RMK AO1 SLP253
T10331050





000
SAUS45 KRIW 230258
MTRP60
METAR KP60 230256Z AUTO 00000KT M03/M05 A3025 RMK AO1 SLP255
T10281050 51007





000
SAUS45 KRIW 230157
MTRP60
METAR KP60 230156Z AUTO 31003KT M02/M04 A3025 RMK AO1 SLP254
T10221044





000
SAUS45 KRIW 230157
MTRP60
METAR KP60 230156Z AUTO 31003KT M02/M04 A3025 RMK AO1 SLP254
T10221044





000
SAUS45 KRIW 230058
MTRP60
METAR KP60 230056Z AUTO 00000KT 00/M04 A3024 RMK AO1 SLP248
T00001039





000
SAUS45 KRIW 230058
MTRP60
METAR KP60 230056Z AUTO 00000KT 00/M04 A3024 RMK AO1 SLP248
T00001039





000
SAUS45 KRIW 222357
MTRP60
METAR KP60 222356Z AUTO VRB03KT 03/M04 A3022 RMK AO1 SLP235
T00281039 10056 20022 51003





000
SAUS45 KRIW 222357
MTRP60
METAR KP60 222356Z AUTO VRB03KT 03/M04 A3022 RMK AO1 SLP235
T00281039 10056 20022 51003





000
SAUS45 KRIW 222257
MTRP60
METAR KP60 222256Z AUTO VRB03KT 03/M04 A3022 RMK AO1 SLP231
T00331039





000
SAUS45 KRIW 222257
MTRP60
METAR KP60 222256Z AUTO VRB03KT 03/M04 A3022 RMK AO1 SLP231
T00331039





000
SAUS45 KRIW 222157
MTRP60
METAR KP60 222156Z AUTO VRB05KT 04/M04 A3022 RMK AO1 SLP231
T00441039





000
SAUS45 KRIW 222058
MTRP60
METAR KP60 222056Z AUTO 26007KT 190V300 05/M05 A3021 RMK AO1 SLP228
T00501050 55001





000
SAUS45 KRIW 221957
MTRP60
METAR KP60 221956Z AUTO VRB05KT 04/M04 A3021 RMK AO1 SLP227
T00441044





000
SAUS45 KRIW 221858
MTRP60
METAR KP60 221856Z AUTO 27007KT 03/M04 A3022 RMK AO1 SLP229
T00331039





000
SAUS45 KRIW 221757
MTRP60
METAR KP60 221756Z AUTO VRB04KT 02/M03 A3022 RMK AO1 SLP233
T00221028 10022 21028 51004





000
SAUS45 KRIW 221757
MTRP60
METAR KP60 221756Z AUTO VRB04KT 02/M03 A3022 RMK AO1 SLP233
T00221028 10022 21028 51004





000
SAUS45 KRIW 221657
MTRP60
METAR KP60 221656Z AUTO VRB03KT 02/M03 A3021 RMK AO1 SLP232
T00171028





000
SAUS45 KRIW 221657
MTRP60
METAR KP60 221656Z AUTO VRB03KT 02/M03 A3021 RMK AO1 SLP232
T00171028





000
SAUS45 KRIW 221557
MTRP60
METAR KP60 221556Z AUTO VRB06KT 00/M03 A3021 RMK AO1 SLP231
T00001028





000
SAUS45 KRIW 221557
MTRP60
METAR KP60 221556Z AUTO VRB06KT 00/M03 A3021 RMK AO1 SLP231
T00001028





000
SAUS45 KRIW 221457
MTRP60
METAR KP60 221456Z AUTO 00000KT M01/M02 A3020 RMK AO1 SLP231
T10111017 53011





000
SAUS45 KRIW 221357
MTRP60
METAR KP60 221356Z AUTO 00000KT M02/M03 A3018 RMK AO1 SLP222
T10171028





000
SAUS45 KRIW 221257
MTRP60
METAR KP60 221256Z AUTO VRB03KT M02/M03 A3016 RMK AO1 SLP213
T10221033





000
SAUS45 KRIW 221158
MTRP60
METAR KP60 221156Z AUTO 00000KT M03/M04 A3016 RMK AO1 SLP216 70010
T10281039 11017 21044 53006





000
SAUS45 KRIW 221058
MTRP60
METAR KP60 221056Z AUTO VRB03KT M02/M03 A3014 RMK AO1 SLP205
T10221033





000
SAUS45 KRIW 221058
MTRP60
METAR KP60 221056Z AUTO VRB03KT M02/M03 A3014 RMK AO1 SLP205
T10221033





000
SAUS45 KRIW 220957
MTRP60
METAR KP60 220956Z AUTO 00000KT M03/M04 A3014 RMK AO1 SLP206
T10331039





000
SAUS45 KRIW 220957
MTRP60
METAR KP60 220956Z AUTO 00000KT M03/M04 A3014 RMK AO1 SLP206
T10331039





000
SAUS45 KRIW 220857
MTRP60
METAR KP60 220856Z AUTO 00000KT M04/M06 A3014 RMK AO1 SLP208
T10441056 53005





000
SAUS45 KRIW 220757
MTRP60
METAR KP60 220756Z AUTO 00000KT M03/M04 A3013 RMK AO1 SLP202
T10331044





000
SAUS45 KRIW 220658
MTRP60
METAR KP60 220656Z AUTO 31003KT M03/M04 A3011 RMK AO1 SLP192
T10281039 400611028





000
SAUS45 KRIW 220557
MTRP60
METAR KP60 220556Z AUTO 00000KT M03/M04 A3012 RMK AO1 SLP194 60004
T10281039 10017 21028 51008





000
SAUS45 KRIW 220557
MTRP60
METAR KP60 220556Z AUTO 00000KT M03/M04 A3012 RMK AO1 SLP194 60004
T10281039 10017 21028 51008





000
SAUS45 KRIW 220457
MTRP60
METAR KP60 220456Z AUTO 00000KT M02/M02 A3011 RMK AO1 SLP180
T10171022





000
SAUS45 KRIW 220457
MTRP60
METAR KP60 220456Z AUTO 00000KT M02/M02 A3011 RMK AO1 SLP180
T10171022





000
SAUS45 KRIW 220357
MTRP60
METAR KP60 220356Z AUTO 00000KT 00/M02 A3011 RMK AO1 SLP173
T00001017





000
SAUS45 KRIW 220357
MTRP60
METAR KP60 220356Z AUTO 00000KT 00/M02 A3011 RMK AO1 SLP173
T00001017





000
SAUS45 KRIW 220257
MTRP60
METAR KP60 220256Z AUTO 00000KT 00/M02 A3009 RMK AO1 SLP180 P0004
60004 T00001017 53009





000
SAUS45 KRIW 220157
MTRP60
METAR KP60 220156Z AUTO 27005KT 01/M02 A3007 RMK AO1 SLP178
T00061017





000
SAUS45 KRIW 220157
MTRP60
METAR KP60 220156Z AUTO 27005KT 01/M02 A3007 RMK AO1 SLP178
T00061017





000
SAUS45 KRIW 220057
MTRP60
METAR KP60 220056Z AUTO 00000KT 02/M03 A3007 RMK AO1 SLP178
T00171028





000
SAUS45 KRIW 212357
MTRP60
METAR KP60 212356Z AUTO 26007G16KT 02/M04 A3005 RMK AO1 SLP175 60004
T00171044 10039 20017 51007





000
SAUS45 KRIW 212257
MTRP60
METAR KP60 212256Z AUTO 28008G18KT 240V300 02/M04 A3005 RMK AO1
SLP174 T00221044





000
SAUS45 KRIW 212257
MTRP60
METAR KP60 212256Z AUTO 28008G18KT 240V300 02/M04 A3005 RMK AO1
SLP174 T00221044





000
SAUS45 KRIW 212157
MTRP60
METAR KP60 212156Z AUTO VRB05KT 03/M03 A3005 RMK AO1 SLP172
T00281033





000
SAUS45 KRIW 212157
MTRP60
METAR KP60 212156Z AUTO VRB05KT 03/M03 A3005 RMK AO1 SLP172
T00281033





000
SAUS45 KRIW 212057
MTRP60
METAR KP60 212056Z AUTO 27009G15KT 230V300 03/M02 A3003 RMK AO1
SLP158 60004 T00331017 53004





000
SAUS45 KRIW 211957
MTRP60
METAR KP60 211956Z AUTO 28010G22KT 240V340 03/00 A3001 RMK AO1
SLP153 T00330000





000
SAUS45 KRIW 211957
MTRP60
METAR KP60 211956Z AUTO 28010G22KT 240V340 03/00 A3001 RMK AO1
SLP153 T00330000





000
SAUS45 KRIW 211858
MTRP60
METAR KP60 211856Z AUTO VRB03KT 03/02 A3002 RMK AO1 SLP151 P0004
T00330017





000
SAUS45 KRIW 211757
MTRP60
METAR KP60 211756Z AUTO VRB06KT 04/02 A3001 RMK AO1 SLP145 60002
T00390022 10061 21022 53002





000
SAUS45 KRIW 211658
MTRP60
METAR KP60 211656Z AUTO VRB03KT 06/04 A3000 RMK AO1 SLP130 T00610039





000
SAUS45 KRIW 211658
MTRP60
METAR KP60 211656Z AUTO VRB03KT 06/04 A3000 RMK AO1 SLP130 T00610039





000
SAUS45 KRIW 211557
MTRP60
METAR KP60 211556Z AUTO 00000KT 06/04 A2998 RMK AO1 SLP121 T00610039





000
SAUS45 KRIW 211557
MTRP60
METAR KP60 211556Z AUTO 00000KT 06/04 A2998 RMK AO1 SLP121 T00610039





000
SAUS45 KRIW 211457
MTRP60
METAR KP60 211456Z AUTO 30003KT 02/01 A3000 RMK AO1 SLP139 P0002
60002 T00170011 51001





000
SAUS45 KRIW 211358
MTRP60
METAR KP60 211356Z AUTO 29003KT 00/M01 A3000 RMK AO1 SLP136
T00001006





000
SAUS45 KRIW 211257
MTRP60
METAR KP60 211256Z AUTO 00000KT M02/M03 A3001 RMK AO1 SLP130
T10171028





000
SAUS45 KRIW 211158
MTRP60
METAR KP60 211156Z AUTO 00000KT M02/M03 A3000 RMK AO1 SLP120
T10221033 10000 21022 56013





000
SAUS45 KRIW 211158
MTRP60
METAR KP60 211156Z AUTO 00000KT M02/M03 A3000 RMK AO1 SLP120
T10221033 10000 21022 56013





000
SAUS45 KRIW 211057
MTRP60
METAR KP60 211056Z AUTO 31003KT M02/M03 A3001 RMK AO1 SLP117
T10221033





000
SAUS45 KRIW 211057
MTRP60
METAR KP60 211056Z AUTO 31003KT M02/M03 A3001 RMK AO1 SLP117
T10221033





000
SAUS45 KRIW 210957
MTRP60
METAR KP60 210956Z AUTO 32003KT M02/M03 A3002 RMK AO1 SLP120
T10171028





000
SAUS45 KRIW 210957
MTRP60
METAR KP60 210956Z AUTO 32003KT M02/M03 A3002 RMK AO1 SLP120
T10171028





000
SAUS45 KRIW 210858
MTRP60
METAR KP60 210856Z AUTO 00000KT M02/M03 A3005 RMK AO1 SLP135
T10171028 56010





000
SAUS45 KRIW 210758
MTRP60
METAR KP60 210756Z AUTO 00000KT M01/M03 A3006 RMK AO1 SLP138
T10111028





000
SAUS45 KRIW 210657
MTRP60
METAR KP60 210656Z AUTO 32003KT M01/M02 A3007 RMK AO1 SLP148
T10061022 401671044





000
SAUS45 KRIW 210558
MTRP60
METAR KP60 210556Z AUTO 30003KT 00/M02 A3009 RMK AO1 SLP154
T00001022 10128 20000 58009





000
SAUS45 KRIW 210457
MTRP60
METAR KP60 210456Z AUTO 31003KT 01/M02 A3010 RMK AO1 SLP163
T00111017





000
SAUS45 KRIW 210358
MTRP60
METAR KP60 210356Z AUTO 31003KT 02/M01 A3011 RMK AO1 SLP173
T00221011





000
SAUS45 KRIW 210358
MTRP60
METAR KP60 210356Z AUTO 31003KT 02/M01 A3011 RMK AO1 SLP173
T00221011





000
SAUS45 KRIW 210257
MTRP60
METAR KP60 210256Z AUTO 32003KT 03/M01 A3012 RMK AO1 SLP190
T00331006 56006





000
SAUS45 KRIW 210157
MTRP60
METAR KP60 210156Z AUTO 00000KT 06/00 A3012 RMK AO1 SLP193 T00610000





000
SAUS45 KRIW 210157
MTRP60
METAR KP60 210156Z AUTO 00000KT 06/00 A3012 RMK AO1 SLP193 T00610000





000
SAUS45 KRIW 210057
MTRP60
METAR KP60 210056Z AUTO 00000KT 10/01 A3013 RMK AO1 SLP184 T01000006





000
SAUS45 KRIW 202358
MTRP60
METAR KP60 202356Z AUTO VRB04KT 13/00 A3014 RMK AO1 SLP178 T01280000
10167 20094 55002





000
SAUS45 KRIW 202257
MTRP60
METAR KP60 202256Z AUTO VRB06KT 15/M01 A3014 RMK AO1 SLP170
T01501006





000
SAUS45 KRIW 202257
MTRP60
METAR KP60 202256Z AUTO VRB06KT 15/M01 A3014 RMK AO1 SLP170
T01501006





000
SAUS45 KRIW 202157
MTRP60
METAR KP60 202156Z AUTO VRB03KT 16/M01 A3014 RMK AO1 SLP165
T01611006





000
SAUS45 KRIW 202157
MTRP60
METAR KP60 202156Z AUTO VRB03KT 16/M01 A3014 RMK AO1 SLP165
T01611006





000
SAUS45 KRIW 202057
MTRP60
METAR KP60 202056Z AUTO VRB04KT 14/02 A3015 RMK AO1 SLP174 T01390017
56019





    US Dept of Commerce
    National Oceanic and Atmospheric Administration
    National Weather Service
    1325 East West Highway
    Silver Spring, MD 20910
    Page Author: NWS Internet Services Team
Disclaimer
Information Quality
Credits
Glossary
Privacy Policy
Freedom of Information Act (FOIA)
About Us
Career Opportunities